Time;durP1;ratioP1;P1;durP2;ratioP2;P2;SDS_P1;SDS_P2;PMS_P1;PMS_P2;Temp;Humidity;BMP_temperature;BMP_pressure;BME280_temperature;BME280_humidity;BME280_pressure;Samples;Min_cycle;Max_cycle;Signal;HPM_P1;HPM_P2
2022/12/09 00:01:39;;;;;;;9.57;7.30;;;13.80;55.30;;;;;;4993496;28;20464;-81
2022/12/09 00:04:07;;;;;;;12.43;8.07;;;13.80;55.50;;;;;;4994999;28;20458;-81
2022/12/09 00:06:35;;;;;;;11.80;7.60;;;13.80;55.70;;;;;;4993772;28;20511;-82
2022/12/09 00:09:03;;;;;;;9.37;7.10;;;13.90;55.70;;;;;;4993313;28;20456;-81
2022/12/09 00:11:32;;;;;;;10.83;7.10;;;13.80;55.60;;;;;;4994054;28;20524;-82
2022/12/09 00:14:00;;;;;;;12.47;7.60;;;13.80;55.60;;;;;;4992060;28;20496;-81
2022/12/09 00:16:29;;;;;;;8.83;6.80;;;13.90;55.70;;;;;;4987888;28;20462;-81
2022/12/09 00:18:57;;;;;;;9.37;6.83;;;13.80;55.70;;;;;;4994133;28;20556;-82
2022/12/09 00:21:26;;;;;;;9.50;6.83;;;13.80;55.80;;;;;;4992956;28;20460;-82
2022/12/09 00:23:56;;;;;;;10.57;7.17;;;13.80;55.80;;;;;;4994370;28;20520;-81
2022/12/09 00:26:24;;;;;;;12.17;7.30;;;13.80;55.80;;;;;;4994318;28;20547;-81
2022/12/09 00:28:52;;;;;;;10.97;7.17;;;13.80;55.70;;;;;;4992266;28;20500;-81
2022/12/09 00:31:23;;;;;;;10.60;7.17;;;13.80;55.80;;;;;;4994398;28;20481;-82
2022/12/09 00:33:53;;;;;;;9.27;6.60;;;13.80;55.90;;;;;;4990663;28;20457;-81
2022/12/09 00:36:21;;;;;;;10.03;7.10;;;13.90;55.90;;;;;;4994359;28;20525;-82
2022/12/09 00:38:50;;;;;;;9.10;6.83;;;13.90;56.00;;;;;;4994894;28;20495;-81
2022/12/09 00:41:18;;;;;;;8.47;6.67;;;13.80;55.80;;;;;;4996164;28;20815;-80
2022/12/09 00:43:46;;;;;;;8.03;6.03;;;13.80;55.90;;;;;;4994287;28;20547;-80
2022/12/09 00:46:14;;;;;;;9.77;6.70;;;13.80;55.90;;;;;;4994519;28;20471;-81
2022/12/09 00:48:42;;;;;;;9.20;6.60;;;13.80;56.00;;;;;;4993927;28;20477;-80
2022/12/09 00:51:14;;;;;;;9.73;6.80;;;13.80;56.20;;;;;;4994516;28;20453;-81
2022/12/09 00:53:42;;;;;;;9.83;6.97;;;13.90;56.00;;;;;;4994108;28;20453;-81
2022/12/09 00:56:10;;;;;;;9.77;6.40;;;13.80;56.00;;;;;;4995466;28;20462;-81
2022/12/09 00:58:38;;;;;;;7.77;6.03;;;13.80;56.00;;;;;;4995093;28;20542;-81
2022/12/09 01:01:06;;;;;;;8.60;5.63;;;13.80;56.00;;;;;;4997960;28;20488;-81
2022/12/09 01:03:34;;;;;;;6.80;5.80;;;13.80;56.10;;;;;;4995835;28;20449;-81
2022/12/09 01:06:07;;;;;;;8.40;6.10;;;13.80;56.10;;;;;;4997771;28;20453;-81
2022/12/09 01:08:37;;;;;;;10.63;6.90;;;13.80;56.00;;;;;;4997673;28;20485;-82
2022/12/09 01:11:10;;;;;;;18.07;10.43;;;13.80;56.00;;;;;;4998425;28;20480;-82
2022/12/09 01:13:38;;;;;;;17.03;9.90;;;13.70;56.00;;;;;;4997236;28;20472;-80
2022/12/09 01:16:13;;;;;;;12.30;9.10;;;13.80;56.00;;;;;;4997917;28;20492;-81
2022/12/09 01:18:41;;;;;;;13.93;9.80;;;13.80;55.80;;;;;;4997609;28;21017;-81
2022/12/09 01:21:09;;;;;;;14.40;9.03;;;13.70;55.60;;;;;;4993342;28;20453;-82
2022/12/09 01:23:39;;;;;;;15.73;9.40;;;13.70;55.90;;;;;;4994269;28;20449;-81
2022/12/09 01:26:07;;;;;;;12.40;8.27;;;13.70;55.70;;;;;;4997572;28;20515;-82
2022/12/09 01:28:35;;;;;;;12.50;8.70;;;13.70;55.60;;;;;;4997488;28;20473;-81
2022/12/09 01:31:07;;;;;;;15.83;9.20;;;13.70;55.60;;;;;;5005590;28;20461;-81
2022/12/09 01:33:35;;;;;;;12.20;8.50;;;13.70;55.70;;;;;;5003167;28;20492;-82
2022/12/09 01:36:04;;;;;;;12.53;8.10;;;13.70;55.60;;;;;;5004310;28;20476;-81
2022/12/09 01:38:32;;;;;;;12.10;7.90;;;13.70;55.40;;;;;;5003809;28;20488;-81
2022/12/09 01:41:01;;;;;;;11.40;7.60;;;13.70;55.50;;;;;;5003201;28;20458;-82
2022/12/09 01:43:29;;;;;;;11.90;8.03;;;13.70;55.30;;;;;;5003618;28;20522;-81
2022/12/09 01:45:57;;;;;;;14.60;8.00;;;13.60;55.40;;;;;;5004250;28;20454;-81
2022/12/09 01:48:26;;;;;;;14.60;8.67;;;13.60;55.40;;;;;;5004753;28;20477;-82
2022/12/09 01:50:56;;;;;;;13.40;7.97;;;13.60;55.20;;;;;;5003991;28;20832;-82
2022/12/09 01:53:33;;;;;;;14.50;8.23;;;13.60;55.30;;;;;;5004610;28;20473;-81
2022/12/09 01:56:05;;;;;;;11.90;7.30;;;13.60;55.50;;;;;;4999612;28;20461;-81
2022/12/09 01:58:33;;;;;;;11.17;7.93;;;13.60;55.50;;;;;;5003306;28;20507;-80
2022/12/09 02:01:01;;;;;;;10.20;7.87;;;13.60;55.30;;;;;;5002099;28;20524;-81
2022/12/09 02:03:30;;;;;;;11.47;7.70;;;13.60;55.30;;;;;;5002814;28;20511;-81
2022/12/09 02:05:58;;;;;;;12.30;7.70;;;13.60;55.20;;;;;;5001043;28;20473;-82
2022/12/09 02:08:26;;;;;;;12.23;7.33;;;13.60;55.30;;;;;;5001932;28;20500;-82
2022/12/09 02:10:59;;;;;;;10.83;6.90;;;13.50;55.30;;;;;;5002689;28;20448;-82
2022/12/09 02:13:30;;;;;;;10.30;7.13;;;13.60;55.20;;;;;;5002191;28;20480;-81
2022/12/09 02:15:59;;;;;;;10.63;6.80;;;13.60;55.30;;;;;;4999399;28;20457;-82
2022/12/09 02:18:31;;;;;;;9.17;7.10;;;13.60;55.30;;;;;;5003851;28;20477;-81
2022/12/09 02:21:01;;;;;;;10.40;6.90;;;13.60;55.30;;;;;;5002481;28;20445;-81
2022/12/09 02:23:31;;;;;;;8.67;6.53;;;13.60;55.30;;;;;;5003134;28;20536;-81
2022/12/09 02:26:05;;;;;;;7.40;5.90;;;13.60;55.40;;;;;;5003014;28;20460;-81
2022/12/09 02:28:47;;;;;;;11.83;6.93;;;13.60;55.50;;;;;;5001368;28;20476;-81
2022/12/09 02:31:22;;;;;;;10.00;7.30;;;13.60;55.30;;;;;;4998616;28;20577;-82
2022/12/09 02:34:06;;;;;;;9.43;6.30;;;13.50;55.40;;;;;;4999732;28;20503;-80
2022/12/09 02:36:36;;;;;;;11.87;7.10;;;13.60;55.40;;;;;;5000814;28;20472;-81
2022/12/09 02:39:04;;;;;;;10.50;6.27;;;13.60;55.50;;;;;;5003000;28;20477;-82
2022/12/09 02:41:32;;;;;;;8.90;6.17;;;13.60;55.60;;;;;;5001445;28;20457;-81
2022/12/09 02:44:03;;;;;;;7.97;5.73;;;13.60;55.70;;;;;;5002554;28;20464;-82
2022/12/09 02:46:31;;;;;;;7.77;6.20;;;13.60;55.50;;;;;;5002984;28;20457;-80
2022/12/09 02:48:59;;;;;;;7.60;5.90;;;13.60;55.70;;;;;;4999828;28;20473;-81
2022/12/09 02:51:30;;;;;;;8.17;6.30;;;13.60;55.70;;;;;;4998651;28;20457;-82
2022/12/09 02:53:59;;;;;;;10.93;7.00;;;13.60;55.80;;;;;;4995629;28;20472;-82
2022/12/09 02:56:27;;;;;;;8.70;6.17;;;13.60;55.80;;;;;;4998577;28;20495;-82
2022/12/09 02:58:55;;;;;;;7.70;6.27;;;13.60;55.70;;;;;;4997403;28;20481;-81
2022/12/09 03:01:34;;;;;;;10.63;5.87;;;13.60;55.90;;;;;;4991498;28;20466;-82
2022/12/09 03:04:02;;;;;;;7.30;5.70;;;13.50;55.80;;;;;;4996028;28;20460;-81
2022/12/09 03:06:35;;;;;;;6.33;5.40;;;13.50;55.90;;;;;;4997613;28;20461;-81
2022/12/09 03:09:06;;;;;;;7.00;5.40;;;13.50;55.70;;;;;;4995059;28;20501;-80
2022/12/09 03:11:34;;;;;;;8.23;5.80;;;13.60;55.80;;;;;;4995144;28;20457;-80
2022/12/09 03:14:05;;;;;;;8.07;5.30;;;13.60;55.90;;;;;;4996573;28;20477;-81
2022/12/09 03:16:36;;;;;;;7.80;5.27;;;13.60;55.80;;;;;;4994139;28;20468;-80
2022/12/09 03:19:06;;;;;;;6.23;5.40;;;13.60;55.80;;;;;;4995948;28;20448;-81
2022/12/09 03:21:38;;;;;;;8.53;5.80;;;13.60;56.00;;;;;;4995582;28;20453;-80
2022/12/09 03:24:07;;;;;;;7.83;5.03;;;13.60;55.90;;;;;;4993380;28;20449;-80
2022/12/09 03:26:35;;;;;;;8.17;5.30;;;13.50;55.80;;;;;;4997057;28;20457;-80
2022/12/09 03:29:03;;;;;;;7.20;5.37;;;13.50;55.90;;;;;;4995701;28;20887;-80
2022/12/09 03:31:32;;;;;;;8.60;5.53;;;13.50;56.20;;;;;;4996841;28;20479;-81
2022/12/09 03:34:02;;;;;;;7.30;5.50;;;13.50;55.80;;;;;;4997679;28;20502;-81
2022/12/09 03:36:33;;;;;;;6.90;4.80;;;13.50;56.00;;;;;;4997930;28;20500;-81
2022/12/09 03:39:03;;;;;;;7.50;4.90;;;13.50;56.10;;;;;;4997660;28;20446;-81
2022/12/09 03:41:32;;;;;;;6.50;4.80;;;13.50;56.00;;;;;;4995677;28;20877;-81
2022/12/09 03:44:04;;;;;;;5.60;4.73;;;13.50;56.00;;;;;;4995609;28;20460;-81
2022/12/09 03:46:32;;;;;;;7.30;5.80;;;13.50;55.80;;;;;;4989940;28;20450;-81
2022/12/09 03:49:01;;;;;;;6.30;5.20;;;13.50;56.00;;;;;;4978168;28;20481;-81
2022/12/09 03:51:30;;;;;;;6.83;5.20;;;13.50;56.10;;;;;;4992945;28;20461;-81
2022/12/09 03:54:00;;;;;;;6.87;4.93;;;13.50;56.00;;;;;;4996638;28;20473;-81
2022/12/09 03:56:32;;;;;;;6.47;4.90;;;13.50;56.00;;;;;;4994032;28;20453;-82
2022/12/09 03:59:01;;;;;;;6.20;5.20;;;13.50;56.10;;;;;;4996215;28;20473;-82
2022/12/09 04:01:28;;;;;;;5.20;4.60;;;13.60;56.00;;;;;;4993098;28;20445;-82
2022/12/09 04:03:57;;;;;;;7.80;5.07;;;13.50;56.10;;;;;;4998331;28;20441;-81
2022/12/09 04:06:25;;;;;;;7.50;5.23;;;13.50;56.10;;;;;;4998279;28;20477;-83
2022/12/09 04:08:53;;;;;;;5.17;4.47;;;13.50;56.00;;;;;;4997961;28;20480;-82
2022/12/09 04:11:30;;;;;;;5.90;4.80;;;13.50;56.20;;;;;;4996864;28;20447;-82
2022/12/09 04:13:58;;;;;;;7.10;4.93;;;13.50;56.20;;;;;;4997382;28;20475;-81
2022/12/09 04:16:26;;;;;;;5.40;4.40;;;13.50;56.20;;;;;;4997942;28;20449;-82
2022/12/09 04:18:54;;;;;;;5.43;4.30;;;13.50;55.90;;;;;;4996877;28;20577;-81
2022/12/09 04:21:22;;;;;;;5.53;4.90;;;13.50;56.00;;;;;;4997941;28;20461;-81
2022/12/09 04:23:50;;;;;;;5.90;4.57;;;13.50;56.00;;;;;;4998290;28;20457;-82
2022/12/09 04:26:20;;;;;;;5.90;4.63;;;13.50;56.10;;;;;;5001167;28;20460;-82
2022/12/09 04:28:50;;;;;;;7.53;4.80;;;13.50;56.10;;;;;;5005188;28;20465;-82
2022/12/09 04:31:18;;;;;;;5.13;4.37;;;13.50;56.00;;;;;;5001421;28;20465;-82
2022/12/09 04:33:47;;;;;;;6.00;4.63;;;13.50;56.00;;;;;;5002394;28;20473;-82
2022/12/09 04:36:17;;;;;;;5.57;4.13;;;13.40;55.90;;;;;;5004394;28;20460;-82
2022/12/09 04:38:45;;;;;;;5.23;4.33;;;13.40;55.90;;;;;;5005924;28;20544;-82
2022/12/09 04:41:13;;;;;;;5.20;4.30;;;13.40;55.80;;;;;;5005670;28;20444;-82
2022/12/09 04:43:41;;;;;;;5.00;4.30;;;13.40;55.90;;;;;;5004844;28;20437;-82
2022/12/09 04:46:12;;;;;;;5.50;4.20;;;13.40;55.90;;;;;;5004206;28;20532;-82
2022/12/09 04:48:40;;;;;;;6.83;4.70;;;13.40;56.00;;;;;;5000142;28;20564;-81
2022/12/09 04:51:09;;;;;;;5.90;5.10;;;13.30;55.80;;;;;;5003131;28;20543;-82
2022/12/09 04:53:37;;;;;;;6.10;4.70;;;13.40;55.80;;;;;;5000773;28;20479;-81
2022/12/09 04:56:06;;;;;;;4.90;4.40;;;13.40;55.80;;;;;;5003004;28;20549;-81
2022/12/09 04:58:35;;;;;;;5.13;4.30;;;13.30;55.70;;;;;;5001684;28;20477;-82
2022/12/09 05:01:05;;;;;;;5.37;4.43;;;13.30;55.60;;;;;;4995774;28;20472;-81
2022/12/09 05:03:35;;;;;;;4.80;4.30;;;13.30;55.60;;;;;;5003294;28;20468;-82
2022/12/09 05:06:04;;;;;;;5.33;4.30;;;13.30;55.50;;;;;;5003310;28;20508;-82
2022/12/09 05:08:32;;;;;;;4.70;4.30;;;13.20;55.60;;;;;;5004168;28;20500;-82
2022/12/09 05:11:01;;;;;;;4.97;4.47;;;13.30;55.60;;;;;;5006237;28;20463;-81
2022/12/09 05:13:29;;;;;;;6.30;4.60;;;13.20;55.50;;;;;;5002706;28;20449;-82
2022/12/09 05:15:59;;;;;;;6.63;4.60;;;13.20;55.40;;;;;;5000421;28;20476;-82
2022/12/09 05:18:28;;;;;;;4.63;4.23;;;13.20;55.30;;;;;;5002154;28;20505;-82
2022/12/09 05:20:58;;;;;;;6.20;4.47;;;13.20;55.10;;;;;;5003218;28;20487;-82
2022/12/09 05:23:28;;;;;;;4.87;4.10;;;13.20;55.30;;;;;;4997934;28;20457;-81
2022/12/09 05:25:56;;;;;;;5.57;4.67;;;13.20;55.10;;;;;;4999699;28;20456;-81
2022/12/09 05:28:24;;;;;;;5.00;4.43;;;13.20;55.20;;;;;;4999616;28;20531;-81
2022/12/09 05:30:53;;;;;;;5.17;4.27;;;13.20;55.30;;;;;;4998260;28;20468;-80
2022/12/09 05:33:21;;;;;;;4.57;4.03;;;13.10;54.80;;;;;;5000644;28;20457;-82
2022/12/09 05:35:50;;;;;;;6.37;4.67;;;13.10;54.80;;;;;;5000127;28;20474;-80
2022/12/09 05:38:21;;;;;;;4.70;4.20;;;13.10;54.80;;;;;;5002664;28;20568;-82
2022/12/09 05:40:50;;;;;;;4.40;4.00;;;13.10;54.60;;;;;;5001778;28;20536;-82
2022/12/09 05:43:18;;;;;;;5.57;4.40;;;13.00;54.60;;;;;;5000809;28;20484;-82
2022/12/09 05:45:46;;;;;;;6.53;4.53;;;13.00;54.60;;;;;;4998612;28;20460;-82
2022/12/09 05:48:14;;;;;;;3.90;3.50;;;13.00;54.80;;;;;;5002203;28;20531;-81
2022/12/09 05:50:43;;;;;;;4.90;4.40;;;13.00;54.70;;;;;;4987777;28;20453;-81
2022/12/09 05:53:11;;;;;;;6.30;4.53;;;13.00;54.50;;;;;;4985533;28;20438;-81
2022/12/09 05:55:41;;;;;;;5.40;4.23;;;12.90;54.40;;;;;;5000460;28;20560;-81
2022/12/09 05:58:09;;;;;;;6.43;3.63;;;12.90;54.40;;;;;;4997181;28;20477;-82
2022/12/09 06:00:37;;;;;;;4.90;4.00;;;12.90;54.40;;;;;;4998767;28;20453;-81
2022/12/09 06:03:05;;;;;;;4.50;4.10;;;12.90;54.40;;;;;;4998958;28;20469;-80
2022/12/09 06:05:33;;;;;;;5.03;4.10;;;12.90;54.30;;;;;;5001085;28;20449;-82
2022/12/09 06:08:02;;;;;;;5.17;4.40;;;12.90;54.40;;;;;;4999372;28;20485;-81
2022/12/09 06:10:34;;;;;;;5.47;4.17;;;12.90;54.30;;;;;;4994052;28;20456;-80
2022/12/09 06:13:03;;;;;;;4.33;3.90;;;12.80;54.00;;;;;;4999694;28;20453;-81
2022/12/09 06:15:32;;;;;;;5.23;4.50;;;12.80;54.10;;;;;;4995893;28;20473;-81
2022/12/09 06:18:01;;;;;;;4.27;3.87;;;12.80;54.10;;;;;;4997350;28;20488;-82
2022/12/09 06:20:29;;;;;;;4.57;4.17;;;12.80;54.10;;;;;;5000221;28;20449;-81
2022/12/09 06:22:58;;;;;;;4.90;4.20;;;12.80;53.90;;;;;;5001735;28;20453;-82
2022/12/09 06:25:26;;;;;;;5.63;3.90;;;12.80;54.10;;;;;;4996445;28;20447;-82
2022/12/09 06:27:55;;;;;;;4.17;3.70;;;12.80;54.10;;;;;;4996420;28;20473;-82
2022/12/09 06:30:24;;;;;;;4.47;3.77;;;12.80;53.80;;;;;;5000226;28;20472;-82
2022/12/09 06:32:53;;;;;;;5.97;3.40;;;12.70;53.90;;;;;;4999951;28;20521;-81
2022/12/09 06:35:21;;;;;;;4.17;3.77;;;12.70;54.00;;;;;;4999187;28;20485;-80
2022/12/09 06:37:51;;;;;;;5.57;4.67;;;12.70;53.80;;;;;;5000407;28;20465;-80
2022/12/09 06:40:20;;;;;;;4.30;3.90;;;12.70;53.80;;;;;;5000994;28;20544;-81
2022/12/09 06:42:49;;;;;;;5.50;4.33;;;12.60;53.80;;;;;;4999855;28;20461;-80
2022/12/09 06:45:18;;;;;;;5.33;4.20;;;12.70;53.70;;;;;;5000345;28;20495;-81
2022/12/09 06:47:48;;;;;;;4.27;3.87;;;12.70;53.60;;;;;;4999576;28;20464;-81
2022/12/09 06:50:16;;;;;;;5.33;4.00;;;12.70;53.70;;;;;;5003084;28;20477;-81
2022/12/09 06:52:45;;;;;;;4.20;3.80;;;12.60;53.50;;;;;;4999904;28;20457;-82
2022/12/09 06:55:13;;;;;;;5.37;4.27;;;12.60;53.50;;;;;;5000363;28;20500;-82
2022/12/09 06:57:42;;;;;;;4.27;3.87;;;12.60;53.50;;;;;;5000481;28;20477;-81
2022/12/09 07:00:11;;;;;;;6.00;4.07;;;12.60;53.60;;;;;;4999240;28;20563;-80
2022/12/09 07:02:39;;;;;;;4.50;4.10;;;12.60;53.70;;;;;;4998987;28;20461;-81
2022/12/09 07:05:10;;;;;;;4.30;3.90;;;12.60;53.60;;;;;;4998611;28;20500;-82
2022/12/09 07:07:39;;;;;;;4.17;3.77;;;12.50;53.40;;;;;;5000528;28;20472;-82
2022/12/09 07:10:09;;;;;;;4.00;3.70;;;12.50;53.40;;;;;;4996903;28;20477;-81
2022/12/09 07:12:37;;;;;;;6.53;4.03;;;12.50;53.40;;;;;;4999106;28;20465;-81
2022/12/09 07:15:06;;;;;;;4.20;3.80;;;12.50;53.40;;;;;;4997203;28;20473;-80
2022/12/09 07:17:35;;;;;;;4.63;4.17;;;12.50;53.40;;;;;;4996024;28;20504;-80
2022/12/09 07:20:04;;;;;;;6.87;4.50;;;12.50;53.40;;;;;;4999646;28;20465;-82
2022/12/09 07:22:36;;;;;;;3.67;3.37;;;12.50;53.30;;;;;;4994081;28;20454;-82
2022/12/09 07:25:05;;;;;;;4.20;3.80;;;12.50;53.40;;;;;;4999008;28;20475;-81
2022/12/09 07:27:34;;;;;;;4.53;3.70;;;12.50;53.30;;;;;;5001423;28;20500;-81
2022/12/09 07:30:02;;;;;;;4.90;4.23;;;12.50;53.30;;;;;;5002095;28;20456;-81
2022/12/09 07:32:30;;;;;;;4.40;4.00;;;12.50;53.30;;;;;;4998312;28;20456;-80
2022/12/09 07:34:59;;;;;;;5.73;4.37;;;12.50;53.20;;;;;;4999429;28;20544;-80
2022/12/09 07:37:27;;;;;;;4.50;4.10;;;12.50;53.20;;;;;;5002037;28;20472;-82
2022/12/09 07:39:56;;;;;;;6.37;4.30;;;12.40;53.20;;;;;;5001393;28;20453;-82
2022/12/09 07:42:25;;;;;;;4.37;3.97;;;12.40;53.20;;;;;;4996997;28;20449;-82
2022/12/09 07:44:53;;;;;;;5.37;4.00;;;12.40;53.20;;;;;;4998313;28;20465;-81
2022/12/09 07:47:21;;;;;;;4.70;4.30;;;12.40;53.30;;;;;;4999093;28;20469;-81
2022/12/09 07:49:49;;;;;;;9.83;4.30;;;12.30;53.20;;;;;;4996901;28;20453;-81
2022/12/09 07:52:18;;;;;;;5.10;4.60;;;12.30;53.10;;;;;;4998981;28;20453;-81
2022/12/09 07:54:46;;;;;;;4.80;4.10;;;12.40;53.30;;;;;;5001306;28;20445;-82
2022/12/09 07:57:16;;;;;;;4.47;4.07;;;12.40;53.20;;;;;;4999025;28;20472;-82
2022/12/09 07:59:45;;;;;;;5.73;3.90;;;12.40;53.10;;;;;;5001024;28;20459;-82
2022/12/09 08:02:13;;;;;;;5.57;4.30;;;12.40;53.00;;;;;;4998252;28;20535;-82
2022/12/09 08:04:41;;;;;;;6.30;4.90;;;12.40;53.10;;;;;;5000375;28;20460;-82
2022/12/09 08:07:10;;;;;;;4.10;3.70;;;12.40;53.10;;;;;;4999312;28;21003;-81
2022/12/09 08:09:40;;;;;;;6.10;4.87;;;12.40;53.10;;;;;;4998752;28;20448;-82
2022/12/09 08:12:10;;;;;;;4.87;4.27;;;12.40;53.00;;;;;;4999967;28;20445;-81
2022/12/09 08:14:40;;;;;;;5.00;4.13;;;12.40;53.10;;;;;;4994776;28;20511;-81
2022/12/09 08:17:08;;;;;;;5.17;4.67;;;12.40;53.00;;;;;;4997058;28;20483;-82
2022/12/09 08:19:37;;;;;;;5.27;4.73;;;12.40;53.00;;;;;;4994790;28;20504;-82
2022/12/09 08:22:05;;;;;;;5.53;4.70;;;12.40;52.90;;;;;;4999622;28;20496;-82
2022/12/09 08:24:34;;;;;;;6.30;4.70;;;12.40;53.00;;;;;;5001004;28;20449;-82
2022/12/09 08:27:03;;;;;;;4.93;4.33;;;12.40;52.80;;;;;;4998302;28;20464;-83
2022/12/09 08:29:32;;;;;;;7.30;5.17;;;12.40;52.80;;;;;;4998709;28;20488;-82
2022/12/09 08:32:02;;;;;;;6.70;5.43;;;12.40;52.80;;;;;;4997608;28;20457;-81
2022/12/09 08:34:30;;;;;;;8.80;5.90;;;12.40;52.70;;;;;;4996149;28;20457;-80
2022/12/09 08:36:59;;;;;;;9.00;6.30;;;12.40;52.60;;;;;;4997487;28;20533;-82
2022/12/09 08:39:29;;;;;;;6.57;5.43;;;12.40;52.80;;;;;;4998810;28;20449;-83
2022/12/09 08:41:57;;;;;;;9.00;6.10;;;12.40;52.70;;;;;;4999956;28;20449;-82
2022/12/09 08:44:25;;;;;;;12.77;6.20;;;12.40;52.60;;;;;;5001966;28;20449;-82
2022/12/09 08:46:54;;;;;;;8.90;6.03;;;12.50;52.60;;;;;;5000569;28;20444;-83
2022/12/09 08:49:24;;;;;;;7.73;5.63;;;12.50;52.70;;;;;;5002672;28;20445;-83
2022/12/09 08:51:53;;;;;;;6.47;5.43;;;12.50;52.90;;;;;;5003029;28;20453;-83
2022/12/09 08:54:21;;;;;;;11.37;6.30;;;12.50;52.90;;;;;;5001119;28;20472;-84
2022/12/09 08:56:50;;;;;;;8.40;5.97;;;12.50;52.80;;;;;;4998376;28;20472;-83
2022/12/09 08:59:19;;;;;;;6.87;5.73;;;12.60;53.00;;;;;;4998227;28;20503;-83
2022/12/09 09:01:47;;;;;;;8.53;6.50;;;12.60;53.00;;;;;;5002278;28;20457;-83
2022/12/09 09:04:16;;;;;;;8.13;6.23;;;12.60;53.00;;;;;;4999818;28;20496;-82
2022/12/09 09:06:48;;;;;;;7.40;5.33;;;12.60;53.00;;;;;;5001509;28;20453;-81
2022/12/09 09:09:17;;;;;;;11.07;6.40;;;12.70;53.10;;;;;;4999669;28;20548;-83
2022/12/09 09:11:46;;;;;;;9.50;6.73;;;12.70;53.10;;;;;;5000226;28;20496;-82
2022/12/09 09:14:14;;;;;;;7.40;5.63;;;12.70;53.10;;;;;;4998305;28;20528;-84
2022/12/09 09:16:43;;;;;;;11.07;7.00;;;12.70;53.10;;;;;;5001809;28;20477;-83
2022/12/09 09:19:14;;;;;;;8.53;5.97;;;12.80;53.00;;;;;;4998600;28;20454;-83
2022/12/09 09:21:43;;;;;;;8.47;6.40;;;12.70;53.20;;;;;;5004031;28;20460;-84
2022/12/09 09:24:16;;;;;;;8.33;6.20;;;12.80;53.10;;;;;;5001099;28;20445;-82
2022/12/09 09:26:45;;;;;;;7.53;6.23;;;12.80;53.20;;;;;;5006312;28;20453;-83
2022/12/09 09:29:13;;;;;;;8.87;6.33;;;12.80;53.20;;;;;;5004950;28;20516;-82
2022/12/09 09:31:42;;;;;;;7.77;6.03;;;12.90;53.40;;;;;;5002172;28;20453;-83
2022/12/09 09:34:10;;;;;;;9.07;6.03;;;12.90;53.40;;;;;;5005959;28;20521;-82
2022/12/09 09:36:39;;;;;;;9.07;6.30;;;12.90;53.50;;;;;;5004274;28;20479;-83
2022/12/09 09:39:08;;;;;;;7.90;6.40;;;13.00;53.60;;;;;;5003479;28;20469;-83
2022/12/09 09:41:43;;;;;;;8.23;5.93;;;13.00;53.60;;;;;;5005399;28;20464;-82
2022/12/09 09:44:17;;;;;;;7.83;6.00;;;13.00;53.60;;;;;;5006804;28;20449;-83
2022/12/09 09:46:47;;;;;;;6.57;5.40;;;13.00;53.60;;;;;;5005490;28;20452;-83
2022/12/09 09:49:18;;;;;;;8.47;6.03;;;13.00;53.70;;;;;;5005512;28;20482;-82
2022/12/09 09:51:46;;;;;;;7.37;6.00;;;13.10;53.70;;;;;;5007037;28;20464;-84
2022/12/09 09:54:15;;;;;;;8.03;5.60;;;13.10;53.80;;;;;;5004110;28;20458;-82
2022/12/09 09:56:50;;;;;;;6.50;5.80;;;13.10;53.90;;;;;;5006686;28;20480;-83
2022/12/09 09:59:24;;;;;;;8.07;6.23;;;13.10;54.00;;;;;;5003021;28;20457;-83
2022/12/09 10:01:56;;;;;;;9.80;6.90;;;13.10;54.00;;;;;;5004836;28;20450;-83
2022/12/09 10:04:33;;;;;;;9.03;5.43;;;13.20;54.10;;;;;;5003995;28;20534;-85
2022/12/09 10:07:04;;;;;;;7.33;5.57;;;13.20;54.20;;;;;;5000634;28;20476;-82
2022/12/09 10:09:37;;;;;;;7.50;5.60;;;13.20;54.10;;;;;;5002513;28;20456;-82
2022/12/09 10:12:14;;;;;;;6.83;5.27;;;13.20;54.30;;;;;;4998582;28;20476;-81
2022/12/09 10:14:44;;;;;;;6.73;5.20;;;13.30;54.20;;;;;;5001264;28;20449;-84
2022/12/09 10:17:18;;;;;;;6.33;5.27;;;13.30;54.30;;;;;;5000641;28;20517;-82
2022/12/09 10:19:48;;;;;;;5.87;4.80;;;13.30;54.40;;;;;;5002671;28;20457;-83
2022/12/09 10:22:19;;;;;;;6.50;5.27;;;13.30;54.40;;;;;;4999383;28;20457;-82
2022/12/09 10:24:48;;;;;;;7.77;5.70;;;13.30;54.30;;;;;;4998696;28;20481;-82
2022/12/09 10:27:28;;;;;;;6.90;6.03;;;13.30;54.40;;;;;;5002246;28;20470;-83
2022/12/09 10:29:58;;;;;;;6.30;5.20;;;13.30;54.40;;;;;;4999947;28;21019;-82
2022/12/09 10:32:27;;;;;;;6.60;5.30;;;13.30;54.60;;;;;;5000990;28;20467;-82
2022/12/09 10:34:56;;;;;;;9.97;6.57;;;13.30;54.60;;;;;;5004215;28;20477;-83
2022/12/09 10:37:27;;;;;;;7.13;5.47;;;13.30;54.60;;;;;;4999333;28;20477;-83
2022/12/09 10:40:01;;;;;;;7.47;6.00;;;13.30;54.40;;;;;;5004674;28;20463;-83
2022/12/09 10:45:17;;;;;;;10.97;6.13;;;13.30;54.40;;;;;;5002819;28;20453;-82
2022/12/09 10:47:49;;;;;;;6.77;5.60;;;13.20;54.50;;;;;;5003322;28;20500;-83
2022/12/09 10:50:30;;;;;;;8.57;5.70;;;13.30;54.60;;;;;;5003165;28;20542;-82
2022/12/09 10:53:02;;;;;;;8.27;6.20;;;13.30;54.50;;;;;;5001663;28;20496;-82
2022/12/09 10:55:31;;;;;;;9.77;6.60;;;13.30;54.50;;;;;;4989264;28;20462;-83
2022/12/09 10:58:18;;;;;;;8.63;6.07;;;13.30;54.40;;;;;;4997422;28;20473;-82
2022/12/09 11:01:01;;;;;;;8.90;6.20;;;13.30;54.60;;;;;;5002540;28;20456;-82
2022/12/09 11:03:31;;;;;;;8.17;6.37;;;13.30;54.50;;;;;;5003214;28;20496;-81
2022/12/09 11:06:02;;;;;;;7.90;6.37;;;13.30;54.50;;;;;;5001492;28;20548;-80
2022/12/09 11:08:32;;;;;;;9.73;6.70;;;13.30;54.50;;;;;;5002332;28;20459;-81
2022/12/09 11:11:00;;;;;;;9.97;6.77;;;13.30;54.50;;;;;;4995003;28;20465;-81
2022/12/09 11:13:40;;;;;;;9.40;6.20;;;13.30;54.50;;;;;;5004391;28;20453;-81
2022/12/09 11:16:09;;;;;;;8.20;6.60;;;13.30;54.60;;;;;;5000068;28;20484;-81
2022/12/09 11:18:43;;;;;;;9.30;6.40;;;13.20;54.40;;;;;;4996928;28;20543;-81
2022/12/09 11:21:32;;;;;;;8.97;6.57;;;13.20;54.50;;;;;;4998269;28;20465;-83
2022/12/09 11:24:01;;;;;;;10.63;7.13;;;13.20;54.40;;;;;;5002195;28;20527;-82
2022/12/09 11:26:36;;;;;;;10.13;6.30;;;13.20;54.40;;;;;;4997546;28;20446;-82
2022/12/09 11:29:14;;;;;;;7.60;5.90;;;13.20;54.60;;;;;;4998616;28;20453;-82
2022/12/09 11:31:42;;;;;;;11.33;6.90;;;13.20;54.60;;;;;;5003441;28;20519;-84
2022/12/09 11:34:15;;;;;;;7.70;5.60;;;13.20;54.60;;;;;;4997910;28;20481;-83
2022/12/09 11:36:47;;;;;;;10.07;6.67;;;13.20;54.50;;;;;;5003694;28;20452;-84
2022/12/09 11:39:22;;;;;;;11.70;6.80;;;13.20;54.60;;;;;;4996194;28;20449;-83
2022/12/09 11:44:50;;;;;;;8.77;6.40;;;13.20;54.80;;;;;;4996926;28;20461;-83
2022/12/09 11:47:26;;;;;;;9.67;6.20;;;13.20;54.90;;;;;;5003016;28;20468;-83
2022/12/09 11:49:56;;;;;;;8.50;6.30;;;13.20;54.80;;;;;;4998404;28;20456;-84
2022/12/09 11:52:27;;;;;;;7.80;5.67;;;13.20;54.90;;;;;;4999219;28;20464;-83
2022/12/09 11:55:06;;;;;;;8.17;6.17;;;13.20;55.10;;;;;;4998054;28;20464;-83
2022/12/09 11:57:36;;;;;;;7.83;6.00;;;13.20;55.00;;;;;;4994225;28;20472;-83
2022/12/09 12:00:14;;;;;;;6.90;5.70;;;13.20;55.10;;;;;;4994901;28;20456;-83
2022/12/09 12:02:44;;;;;;;8.00;5.90;;;13.20;55.10;;;;;;4998670;28;20472;-83
2022/12/09 12:05:19;;;;;;;9.13;6.20;;;13.20;55.10;;;;;;4997156;28;20450;-82
2022/12/09 12:07:50;;;;;;;8.17;6.43;;;13.20;55.10;;;;;;4994005;28;20475;-82
2022/12/09 12:10:22;;;;;;;8.40;5.90;;;13.20;55.20;;;;;;4997084;28;20456;-80
2022/12/09 12:12:59;;;;;;;9.57;7.07;;;13.20;55.00;;;;;;5000614;28;20452;-83
2022/12/09 12:15:42;;;;;;;10.67;6.87;;;13.20;54.90;;;;;;4992885;28;20453;-83
2022/12/09 12:18:13;;;;;;;6.07;5.40;;;13.20;55.00;;;;;;4993018;28;20488;-81
2022/12/09 12:20:54;;;;;;;10.03;7.30;;;13.20;55.10;;;;;;4993513;28;20457;-83
2022/12/09 12:23:29;;;;;;;8.00;5.90;;;13.20;55.10;;;;;;4996019;28;20449;-83
2022/12/09 12:25:59;;;;;;;11.87;7.13;;;13.20;55.20;;;;;;4994599;28;20453;-82
2022/12/09 12:29:10;;;;;;;10.70;6.90;;;13.10;55.10;;;;;;4991384;28;20883;-82
2022/12/09 12:31:50;;;;;;;11.00;6.67;;;13.20;55.20;;;;;;4990584;28;20460;-83
2022/12/09 12:34:22;;;;;;;8.87;6.60;;;13.10;55.30;;;;;;4998632;28;20460;-83
2022/12/09 12:36:56;;;;;;;10.53;6.47;;;13.10;55.20;;;;;;4994333;28;20481;-82
2022/12/09 12:39:35;;;;;;;11.37;7.30;;;13.10;55.20;;;;;;4990836;28;20471;-82
2022/12/09 12:42:06;;;;;;;10.73;7.00;;;13.20;55.20;;;;;;4992775;28;20453;-82
2022/12/09 12:47:29;;;;;;;10.80;7.07;;;13.20;55.30;;;;;;4985998;28;20473;-82
2022/12/09 12:50:11;;;;;;;11.90;7.20;;;13.20;55.30;;;;;;4989944;28;20457;-82
2022/12/09 12:52:42;;;;;;;9.27;6.60;;;13.20;55.30;;;;;;4993228;28;20457;-81
2022/12/09 12:55:37;;;;;;;8.67;6.40;;;13.10;55.30;;;;;;4993597;28;20533;-83
2022/12/09 12:58:10;;;;;;;12.60;7.73;;;13.10;55.40;;;;;;4992398;28;20477;-84
2022/12/09 13:00:49;;;;;;;15.73;7.30;;;13.20;55.40;;;;;;4997315;28;20472;-84
2022/12/09 13:03:24;;;;;;;11.63;7.37;;;13.20;55.30;;;;;;4994352;28;20453;-82
2022/12/09 13:05:53;;;;;;;10.60;7.20;;;13.20;55.40;;;;;;4993598;28;20456;-84
2022/12/09 13:08:25;;;;;;;11.23;7.03;;;13.20;55.30;;;;;;4994032;28;20473;-83
2022/12/09 13:10:55;;;;;;;13.13;7.60;;;13.20;55.20;;;;;;4996500;28;20519;-84